Du har inga inställningar för hoppväder.nu

Hoppväder.nu

Senast uppdaterat 09:32

UTC-tid

2019-02-18 kl. 08:32


Sol och måne

Solen går upp 7:25 och går ner 17:16 (beräknade cirkatider)
Nästa fullmåne blir imorgon!

METAR

ESMS (Malmö)
(12 minuter sedan)
ESMS 180820Z 15007KT 0400 R17/0600N R35/P1500N OVC002 03/03 Q1018=



ESMK (Everöd)
(12 minuter sedan)
ESMK 180820Z 16005KT 1300 R01/1600U R19/1700N OVC002 04/04 Q1018=



ESTL (Ljungbyhed)
(12 minuter sedan)
ESTL 180820Z AUTO 13006KT 4300 BR BKN004/// 05/05 Q1017=



EKCH (Köpenhamn)
(12 minuter sedan)
EKCH 180820Z AUTO 17007KT 3800NDV BR NCD 04/04 Q1017 BECMG 8000 NSW=



ESTA (Ängelholm)
(12 minuter sedan)
ESTA 180820Z 13007KT 1700 BR SCT005 03/03 Q1017=



TAF

ESMS (Malmö)
(198 minuter sedan)
ESMS 180514Z 1806/1906 14005KT 3000 BR SCT002 TEMPO 1806/1810 0200 FG VV002 BECMG 1810/1812 8000 NSW TEMPO 1812/1906 2000 BR BKN002=



ESMK (Everöd)
(28 minuter sedan)
ESMK 180804Z 1809/1818 11005KT 0200 FG VV001 BECMG 1809/1811 3000 BR BKN006 BECMG 1811/1813 8000 NSW SCT006=



ESTL (Ljungbyhed)
ESTL



EKCH (Köpenhamn)
(198 minuter sedan)
EKCH 180514Z 1806/1906 16008KT 5000 FEW002 TEMPO 1806/1809 1200 BR TEMPO 1900/1906 4000 -RADZ BR BKN008=



ESTA (Ängelholm)
(28 minuter sedan)
ESTA 180804Z 1809/1818 14008KT 2000 BR BKN005 BECMG 1809/1811 8000 NSW SCT005 TEMPO 1811/1818 4000 BR BKN004=





Kodnycklar till TAF och METAR






LHP

(Eslöv är område J3c i Hela Område E)

ÖVERSIKT FÖR OMRÅDE E UTFÄRDAD 180349
GÄLLANDE DEN 18 FEBRUARI 2019 MELLAN 05 OCH 13 UTC


Väderöversikt
Se väderöversikt för område A+B

Sikt under 5 kilometer eller molnbas under 1000 fot
05-13UTC: I hela området


Måttlig eller svår isbildning
Väntas inte förekomma under perioden

Måttlig eller svår turbulens
Väntas inte förekomma under perioden



PROGNOS FÖR OMRÅDE J UTFÄRDAD 180349
GÄLLANDE DEN 18 FEBRUARI 2019 MELLAN 05 OCH 13 UTC

Måttlig eller svår turbulens
05-13UTC: I hela området: Väntas inte förekomma under perioden

Måttlig eller svår isbildning
05-13UTC: I hela området: Väntas inte förekomma under perioden

Sikt/Väder/Moln
05-07UTC: Område J1a,J2a,J3b,J3a,J4c,J4b: Sikt <0.8km i dimma, lokalt 3km - 5km i dis. Molnbas <500ft, lokalt >4000ft.

05-11UTC: Område J1b,J1c: Sikt <0.8km - 8km i dis, dimma. Molnbas <500ft - >4000ft.

05-13UTC: Område J2b,J3c,J4a: Sikt <0.8km - 8km i dis, dimma. Molnbas <500ft - >4000ft.

07-09UTC: Område J1a,J2a: Sikt <0.8km - 8km i dis, dimma. Molnbas <500ft - >4000ft.
Område J4c: Sikt <0.8km i dimma, lokalt 5km - 8km i dis. Molnbas <500ft, lokalt 1500ft - 2000ft.

07-11UTC: Område J3b: Sikt <0.8km i dimma, lokalt 5km - 8km i dis. Molnbas <500ft, lokalt 1500ft - 2000ft.

07-13UTC: Område J3a,J4b: Sikt <0.8km i dimma, lokalt 5km - 8km i dis. Molnbas <500ft, lokalt 1500ft - 2000ft.

09-11UTC: Område J1a: Sikt <0.8km - 8km i dis, dimma. Molnbas <500ft - 4000ft.

09-13UTC: Område J2a: Sikt <0.8km - 8km i dis, dimma. Molnbas <500ft - 4000ft.
Område J4c: Sikt <0.8km - 8km i dis, dimma. Molnbas <500ft - >4000ft.

11-13UTC: Område J1a: Sikt 5km - 8km, lokalt 0.8km - 1.5km i dis. Molnbas 2000ft - 4000ft, lokalt <500ft.
Område J3b: Sikt <0.8km - 8km i dis, dimma. Molnbas <500ft - >4000ft.
Område J1c: Sikt 5km - 8km, lokalt 1.5km - 3km i dis. Molnbas >4000ft.
Område J1b: Sikt 0.8km - 8km i dis. Molnbas <500ft - >4000ft.


Molnöversida
05-11UTC: Område J1c: Molnöversida FL070.

05-13UTC: Område J1b,J1a,J2a,J2b,J3b,J3a,J3c,J4a,J4c,J4b: Molnöversida FL070.

11-13UTC: Område J1c: Ingen prognos


CB/TCU Moln
05-13UTC: I hela området: Väntas inte förekomma under perioden

Nollgradersisoterm
05-09UTC: Noll grader FL070.
09-11UTC: Noll grader FL060 - FL070.
11-13UTC: Noll grader 4500ft - FL070.

Vind vid marken
05-07UTC: Område J2b: SO-S/4-15 knop, byar upp till 24 knop.
Område J1b: SO-S/7-18 knop, byar upp till 24 knop.
Område J2a: SO-S/3-12 knop, byar upp till 21 knop.
Område J3a: SO-S/3-6 knop, byar upp till 14 knop.
Område J4b: SO-S/3-16 knop, byar upp till 20 knop.
Område J1a: S/6-20 knop, byar upp till 26 knop.
Område J1c: SO-S/5-14 knop, byar upp till 19 knop.
Område J3b: SO-S/3-7 knop, byar upp till 14 knop.
Område J3c: SO-S/3-9 knop, byar upp till 17 knop.
Område J4a: S/5-14 knop, byar upp till 18 knop.
Område J4c: SO-S/6-16 knop, byar upp till 21 knop.

07-09UTC: Område J1b: S/5-18 knop, byar upp till 24 knop.
Område J1a: S/6-19 knop, byar upp till 26 knop.
Område J1c: S/5-15 knop, byar upp till 20 knop.
Område J2b: SO-S/3-16 knop, byar upp till 26 knop.
Område J3c: SO-S/3-9 knop, byar upp till 15 knop.
Område J4c: S/6-16 knop, byar upp till 20 knop.
Område J3b: SO-S/3-9 knop, byar upp till 14 knop.
Område J4a: S/5-11 knop, byar upp till 16 knop.
Område J2a: S/2-13 knop, byar upp till 22 knop.

07-11UTC: Område J3a: SO-S/4-8 knop, byar upp till 15 knop.
Område J4b: S/5-15 knop, byar upp till 19 knop.

09-11UTC: Område J1a: S/5-18 knop, byar upp till 24 knop.
Område J2b: S/4-15 knop, byar upp till 27 knop.
Område J3b: S/3-6 knop, byar upp till 15 knop.
Område J1c: S/4-13 knop, byar upp till 18 knop.
Område J4a: S-SV/5-11 knop.
Område J1b: S/5-16 knop, byar upp till 24 knop.
Område J3c: S/3-8 knop, byar upp till 15 knop.
Område J4c: S/5-17 knop, byar upp till 21 knop.
Område J2a: S-SV/4-11 knop, byar upp till 21 knop.

11-13UTC: Område J3a: SO-S/3-6 knop, byar upp till 14 knop.
Område J4b: S-SV/4-14 knop, byar upp till 19 knop.
Område J1c: S/4-12 knop, byar upp till 17 knop.
Område J4a: S/5-10 knop.
Område J1a: S/5-17 knop, byar upp till 24 knop.
Område J3c: S/3-7 knop, byar upp till 15 knop.
Område J2a: S-SV/4-11 knop, byar upp till 20 knop.
Område J4c: S-SV/6-15 knop, byar upp till 20 knop.
Område J3b: S/2-6 knop, byar upp till 13 knop.
Område J2b: S/4-13 knop, byar upp till 22 knop.
Område J1b: SO-S/5-15 knop, byar upp till 22 knop.


Genomsnittlig vind och temperatur för området
2000ft:
05-07UTC: 210/18kt +7.
07-09UTC: 220/18kt +8.
09-11UTC: 230/20kt +8.
11-13UTC: 240/20kt +8.

FL50:
05-07UTC: 230/20kt +6.
07-11UTC: 240/22kt +5.
11-13UTC: 250/22kt +4.

FL100:
05-07UTC: 240/21kt -6.
07-09UTC: 240/22kt -6.
09-11UTC: 240/24kt -6.
11-13UTC: 240/26kt -6.

Lägsta QNH
1013 hPa.

OBS! endast utbredd måttlig eller svår isbildning och turbulens prognostiseras i LLF.
Avsaknad av isbildning och turbulens i prognosen utesluter inte förekomst av lätt isbildning och turbulens.
För indikation på lätt isbildning, var vänlig kontrollera om prognosen för molntopp ligger högre än nollgradersisotermen.
Förekomst av TCU eller CB medför alltid en risk för måttlig eller svår isbildning och turbulens även om det inte framgår explicit av prognosen.





Spotting

Hur fungerar spotthjälpen och Vindkartan?

Markvind är ca 0 m/s.
Vind på 600 m ca 9 m/s.
Vind på 1500 m ca 11 m/s.
Vind på 3000 m ca 11 m/s.
Caravanen flyger ca 30 m/s över marken på finalen.
Du driver ca 509 m bakåt i frifall. (679 m)
Lämplig spot är 8 sekunder eller 239 m efter gropen.
(13 s eller 388 m)
För små grupper eller ensamhoppare bör man vänta 5-7 sekunder mellan grupperna.
För större grupper bör man vänta 10-12 sekunder mellan grupperna.


Vindkartan

Senast uppdaterad 09:32




All data kommer från LFV.se